sensor_id;sensor_type;location;lat;lon;timestamp;temperature;humidity
9223;DHT22;7557;51.698;3.942;2023-05-21T00:02:05;15.00;99.90
9223;DHT22;7557;51.698;3.942;2023-05-21T00:04:36;15.00;99.90
9223;DHT22;7557;51.698;3.942;2023-05-21T00:07:05;14.90;99.90
9223;DHT22;7557;51.698;3.942;2023-05-21T00:09:33;14.90;99.90
9223;DHT22;7557;51.698;3.942;2023-05-21T00:12:00;14.90;99.90
9223;DHT22;7557;51.698;3.942;2023-05-21T00:14:27;14.90;99.90
9223;DHT22;7557;51.698;3.942;2023-05-21T00:16:55;14.90;99.90
9223;DHT22;7557;51.698;3.942;2023-05-21T00:19:23;14.90;99.90
9223;DHT22;7557;51.698;3.942;2023-05-21T00:21:51;14.90;99.90
9223;DHT22;7557;51.698;3.942;2023-05-21T00:24:19;14.90;99.90
9223;DHT22;7557;51.698;3.942;2023-05-21T00:26:46;14.90;99.90
9223;DHT22;7557;51.698;3.942;2023-05-21T00:29:13;14.90;99.90
9223;DHT22;7557;51.698;3.942;2023-05-21T00:31:40;14.80;99.90
9223;DHT22;7557;51.698;3.942;2023-05-21T00:34:08;14.80;99.90
9223;DHT22;7557;51.698;3.942;2023-05-21T00:36:36;14.70;99.90
9223;DHT22;7557;51.698;3.942;2023-05-21T00:39:05;14.80;99.90
9223;DHT22;7557;51.698;3.942;2023-05-21T00:41:33;14.70;99.90
9223;DHT22;7557;51.698;3.942;2023-05-21T00:44:01;14.70;99.90
9223;DHT22;7557;51.698;3.942;2023-05-21T00:49:50;14.70;99.90
9223;DHT22;7557;51.698;3.942;2023-05-21T00:52:19;14.60;99.90
9223;DHT22;7557;51.698;3.942;2023-05-21T00:54:48;14.60;99.90
9223;DHT22;7557;51.698;3.942;2023-05-21T00:57:18;14.60;99.90
9223;DHT22;7557;51.698;3.942;2023-05-21T00:59:46;14.60;99.90
9223;DHT22;7557;51.698;3.942;2023-05-21T01:02:14;14.50;99.90
9223;DHT22;7557;51.698;3.942;2023-05-21T01:04:43;14.50;99.90
9223;DHT22;7557;51.698;3.942;2023-05-21T01:07:11;14.60;99.90
9223;DHT22;7557;51.698;3.942;2023-05-21T01:09:42;14.60;99.90
9223;DHT22;7557;51.698;3.942;2023-05-21T01:12:10;14.60;99.90
9223;DHT22;7557;51.698;3.942;2023-05-21T01:14:38;14.60;99.90
9223;DHT22;7557;51.698;3.942;2023-05-21T01:17:06;14.60;99.90
9223;DHT22;7557;51.698;3.942;2023-05-21T01:19:35;14.50;99.90
9223;DHT22;7557;51.698;3.942;2023-05-21T01:22:05;14.50;99.90
9223;DHT22;7557;51.698;3.942;2023-05-21T01:24:34;14.50;99.90
9223;DHT22;7557;51.698;3.942;2023-05-21T01:27:02;14.50;99.90
9223;DHT22;7557;51.698;3.942;2023-05-21T01:29:32;14.50;99.90
9223;DHT22;7557;51.698;3.942;2023-05-21T01:32:05;14.50;99.90
9223;DHT22;7557;51.698;3.942;2023-05-21T01:34:41;14.50;99.90
9223;DHT22;7557;51.698;3.942;2023-05-21T01:37:19;14.50;99.90
9223;DHT22;7557;51.698;3.942;2023-05-21T01:39:52;14.50;99.90
9223;DHT22;7557;51.698;3.942;2023-05-21T01:42:22;14.50;99.90
9223;DHT22;7557;51.698;3.942;2023-05-21T01:44:54;14.50;99.90
9223;DHT22;7557;51.698;3.942;2023-05-21T01:47:22;14.50;99.90
9223;DHT22;7557;51.698;3.942;2023-05-21T01:49:50;14.50;99.90
9223;DHT22;7557;51.698;3.942;2023-05-21T01:52:18;14.50;99.90
9223;DHT22;7557;51.698;3.942;2023-05-21T01:54:45;14.50;99.90
9223;DHT22;7557;51.698;3.942;2023-05-21T01:57:16;14.40;99.90
9223;DHT22;7557;51.698;3.942;2023-05-21T01:59:43;14.40;99.90
9223;DHT22;7557;51.698;3.942;2023-05-21T02:02:12;14.30;99.90
9223;DHT22;7557;51.698;3.942;2023-05-21T02:04:39;14.30;99.90
9223;DHT22;7557;51.698;3.942;2023-05-21T02:07:07;14.30;99.90
9223;DHT22;7557;51.698;3.942;2023-05-21T02:09:34;14.30;99.90
9223;DHT22;7557;51.698;3.942;2023-05-21T02:12:02;14.30;99.90
9223;DHT22;7557;51.698;3.942;2023-05-21T02:14:31;14.30;99.90
9223;DHT22;7557;51.698;3.942;2023-05-21T02:16:59;14.20;99.90
9223;DHT22;7557;51.698;3.942;2023-05-21T02:19:26;14.20;99.90
9223;DHT22;7557;51.698;3.942;2023-05-21T02:21:53;14.20;99.90
9223;DHT22;7557;51.698;3.942;2023-05-21T02:24:21;14.20;99.90
9223;DHT22;7557;51.698;3.942;2023-05-21T02:26:49;14.20;99.90
9223;DHT22;7557;51.698;3.942;2023-05-21T02:29:17;14.10;99.90
9223;DHT22;7557;51.698;3.942;2023-05-21T02:31:45;14.10;99.90
9223;DHT22;7557;51.698;3.942;2023-05-21T02:34:13;14.10;99.90
9223;DHT22;7557;51.698;3.942;2023-05-21T02:36:41;14.10;99.90
9223;DHT22;7557;51.698;3.942;2023-05-21T02:39:08;14.10;99.90
9223;DHT22;7557;51.698;3.942;2023-05-21T02:41:35;14.10;99.90
9223;DHT22;7557;51.698;3.942;2023-05-21T02:44:03;14.20;99.90
9223;DHT22;7557;51.698;3.942;2023-05-21T02:46:30;14.20;99.90
9223;DHT22;7557;51.698;3.942;2023-05-21T02:48:58;14.20;99.90
9223;DHT22;7557;51.698;3.942;2023-05-21T02:51:26;14.10;99.90
9223;DHT22;7557;51.698;3.942;2023-05-21T02:53:53;14.10;99.90
9223;DHT22;7557;51.698;3.942;2023-05-21T02:56:20;14.00;99.90
9223;DHT22;7557;51.698;3.942;2023-05-21T02:58:48;14.00;99.90
9223;DHT22;7557;51.698;3.942;2023-05-21T03:01:16;14.00;99.90
9223;DHT22;7557;51.698;3.942;2023-05-21T03:03:44;14.00;99.90
9223;DHT22;7557;51.698;3.942;2023-05-21T03:06:13;14.00;99.90
9223;DHT22;7557;51.698;3.942;2023-05-21T03:08:41;14.00;99.90
9223;DHT22;7557;51.698;3.942;2023-05-21T03:11:08;14.00;99.90
9223;DHT22;7557;51.698;3.942;2023-05-21T03:13:35;13.90;99.90
9223;DHT22;7557;51.698;3.942;2023-05-21T03:16:03;13.90;99.90
9223;DHT22;7557;51.698;3.942;2023-05-21T03:18:30;13.90;99.90
9223;DHT22;7557;51.698;3.942;2023-05-21T03:20:57;13.90;99.90
9223;DHT22;7557;51.698;3.942;2023-05-21T03:23:26;13.90;99.90
9223;DHT22;7557;51.698;3.942;2023-05-21T03:25:54;13.90;99.90
9223;DHT22;7557;51.698;3.942;2023-05-21T03:28:21;13.90;99.90
9223;DHT22;7557;51.698;3.942;2023-05-21T03:30:48;13.90;99.90
9223;DHT22;7557;51.698;3.942;2023-05-21T03:33:17;13.90;99.90
9223;DHT22;7557;51.698;3.942;2023-05-21T03:35:44;13.90;99.90
9223;DHT22;7557;51.698;3.942;2023-05-21T03:38:12;14.00;99.90
9223;DHT22;7557;51.698;3.942;2023-05-21T03:40:42;14.00;99.90
9223;DHT22;7557;51.698;3.942;2023-05-21T03:43:09;14.00;99.90
9223;DHT22;7557;51.698;3.942;2023-05-21T03:45:37;14.10;99.90
9223;DHT22;7557;51.698;3.942;2023-05-21T03:48:04;14.20;99.90
9223;DHT22;7557;51.698;3.942;2023-05-21T03:50:32;14.20;99.90
9223;DHT22;7557;51.698;3.942;2023-05-21T03:52:59;14.20;99.90
9223;DHT22;7557;51.698;3.942;2023-05-21T03:55:27;14.30;99.90
9223;DHT22;7557;51.698;3.942;2023-05-21T03:57:57;14.30;99.90
9223;DHT22;7557;51.698;3.942;2023-05-21T04:00:24;14.30;99.90
9223;DHT22;7557;51.698;3.942;2023-05-21T04:02:51;14.30;99.90
9223;DHT22;7557;51.698;3.942;2023-05-21T04:05:19;14.40;99.90
9223;DHT22;7557;51.698;3.942;2023-05-21T04:07:46;14.40;99.90
9223;DHT22;7557;51.698;3.942;2023-05-21T04:10:15;14.40;99.90
9223;DHT22;7557;51.698;3.942;2023-05-21T04:12:43;14.40;99.90
9223;DHT22;7557;51.698;3.942;2023-05-21T04:15:12;14.50;99.90
9223;DHT22;7557;51.698;3.942;2023-05-21T04:17:43;14.50;99.90
9223;DHT22;7557;51.698;3.942;2023-05-21T04:20:12;14.50;99.90
9223;DHT22;7557;51.698;3.942;2023-05-21T04:22:41;14.50;99.90
9223;DHT22;7557;51.698;3.942;2023-05-21T04:25:09;14.50;99.90
9223;DHT22;7557;51.698;3.942;2023-05-21T04:27:37;14.50;99.90
9223;DHT22;7557;51.698;3.942;2023-05-21T04:30:05;14.50;99.90
9223;DHT22;7557;51.698;3.942;2023-05-21T04:32:34;14.50;99.90
9223;DHT22;7557;51.698;3.942;2023-05-21T04:35:03;14.50;99.90
9223;DHT22;7557;51.698;3.942;2023-05-21T04:37:31;14.50;99.90
9223;DHT22;7557;51.698;3.942;2023-05-21T04:40:00;14.60;99.90
9223;DHT22;7557;51.698;3.942;2023-05-21T04:42:28;14.60;99.90
9223;DHT22;7557;51.698;3.942;2023-05-21T04:44:57;14.60;99.90
9223;DHT22;7557;51.698;3.942;2023-05-21T04:47:25;14.60;99.90
9223;DHT22;7557;51.698;3.942;2023-05-21T04:49:56;14.60;99.90
9223;DHT22;7557;51.698;3.942;2023-05-21T04:52:24;14.60;99.90
9223;DHT22;7557;51.698;3.942;2023-05-21T04:54:52;14.70;99.90
9223;DHT22;7557;51.698;3.942;2023-05-21T04:57:19;14.70;99.90
9223;DHT22;7557;51.698;3.942;2023-05-21T04:59:49;14.70;99.90
9223;DHT22;7557;51.698;3.942;2023-05-21T05:02:17;14.70;99.90
9223;DHT22;7557;51.698;3.942;2023-05-21T05:04:45;14.70;99.90
9223;DHT22;7557;51.698;3.942;2023-05-21T05:07:17;14.80;99.90
9223;DHT22;7557;51.698;3.942;2023-05-21T05:09:44;14.80;99.90
9223;DHT22;7557;51.698;3.942;2023-05-21T05:12:12;14.80;99.90
9223;DHT22;7557;51.698;3.942;2023-05-21T05:14:40;14.80;99.90
9223;DHT22;7557;51.698;3.942;2023-05-21T05:17:07;14.80;99.90
9223;DHT22;7557;51.698;3.942;2023-05-21T05:19:35;14.80;99.90
9223;DHT22;7557;51.698;3.942;2023-05-21T05:22:03;14.80;99.90
9223;DHT22;7557;51.698;3.942;2023-05-21T05:24:32;14.90;99.90
9223;DHT22;7557;51.698;3.942;2023-05-21T05:26:59;14.90;99.90
9223;DHT22;7557;51.698;3.942;2023-05-21T05:29:27;14.90;99.90
9223;DHT22;7557;51.698;3.942;2023-05-21T05:31:54;14.90;99.90
9223;DHT22;7557;51.698;3.942;2023-05-21T05:34:22;15.00;99.90
9223;DHT22;7557;51.698;3.942;2023-05-21T05:36:50;15.00;99.90
9223;DHT22;7557;51.698;3.942;2023-05-21T05:39:17;15.00;99.90
9223;DHT22;7557;51.698;3.942;2023-05-21T05:41:46;15.00;99.90
9223;DHT22;7557;51.698;3.942;2023-05-21T05:44:14;15.00;99.90
9223;DHT22;7557;51.698;3.942;2023-05-21T05:46:44;15.00;99.90
9223;DHT22;7557;51.698;3.942;2023-05-21T05:49:11;15.00;99.90
9223;DHT22;7557;51.698;3.942;2023-05-21T05:51:39;15.00;99.90
9223;DHT22;7557;51.698;3.942;2023-05-21T05:54:07;15.10;99.90
9223;DHT22;7557;51.698;3.942;2023-05-21T05:56:34;15.10;99.90
9223;DHT22;7557;51.698;3.942;2023-05-21T05:59:03;15.20;99.90
9223;DHT22;7557;51.698;3.942;2023-05-21T06:01:32;15.20;99.90
9223;DHT22;7557;51.698;3.942;2023-05-21T06:03:59;15.20;99.90
9223;DHT22;7557;51.698;3.942;2023-05-21T06:06:27;15.20;99.90
9223;DHT22;7557;51.698;3.942;2023-05-21T06:08:54;15.20;99.90
9223;DHT22;7557;51.698;3.942;2023-05-21T06:11:22;15.30;99.90
9223;DHT22;7557;51.698;3.942;2023-05-21T06:13:49;15.30;99.90
9223;DHT22;7557;51.698;3.942;2023-05-21T06:16:18;15.30;99.90
9223;DHT22;7557;51.698;3.942;2023-05-21T06:18:45;15.40;99.90
9223;DHT22;7557;51.698;3.942;2023-05-21T06:21:13;15.40;99.90
9223;DHT22;7557;51.698;3.942;2023-05-21T06:23:40;15.50;99.90
9223;DHT22;7557;51.698;3.942;2023-05-21T06:26:08;15.50;99.90
9223;DHT22;7557;51.698;3.942;2023-05-21T06:28:35;15.60;99.90
9223;DHT22;7557;51.698;3.942;2023-05-21T06:31:03;15.60;99.90
9223;DHT22;7557;51.698;3.942;2023-05-21T06:33:32;15.60;99.90
9223;DHT22;7557;51.698;3.942;2023-05-21T06:35:59;15.60;99.90
9223;DHT22;7557;51.698;3.942;2023-05-21T06:38:27;15.70;99.90
9223;DHT22;7557;51.698;3.942;2023-05-21T06:40:54;15.70;99.90
9223;DHT22;7557;51.698;3.942;2023-05-21T06:43:23;15.70;99.90
9223;DHT22;7557;51.698;3.942;2023-05-21T06:45:50;15.80;99.90
9223;DHT22;7557;51.698;3.942;2023-05-21T06:48:18;15.80;99.90
9223;DHT22;7557;51.698;3.942;2023-05-21T06:50:47;15.80;99.90
9223;DHT22;7557;51.698;3.942;2023-05-21T06:53:15;15.80;99.90
9223;DHT22;7557;51.698;3.942;2023-05-21T06:55:42;15.80;99.90
9223;DHT22;7557;51.698;3.942;2023-05-21T06:58:10;15.80;99.90
9223;DHT22;7557;51.698;3.942;2023-05-21T07:00:38;15.90;99.90
9223;DHT22;7557;51.698;3.942;2023-05-21T07:03:06;15.90;99.90
9223;DHT22;7557;51.698;3.942;2023-05-21T07:05:34;15.90;99.90
9223;DHT22;7557;51.698;3.942;2023-05-21T07:08:03;15.90;99.90
9223;DHT22;7557;51.698;3.942;2023-05-21T07:10:30;15.90;99.90
9223;DHT22;7557;51.698;3.942;2023-05-21T07:12:58;15.90;99.90
9223;DHT22;7557;51.698;3.942;2023-05-21T07:15:26;16.00;99.90
9223;DHT22;7557;51.698;3.942;2023-05-21T07:17:53;16.00;99.90
9223;DHT22;7557;51.698;3.942;2023-05-21T07:20:21;16.00;99.90
9223;DHT22;7557;51.698;3.942;2023-05-21T07:22:48;16.00;99.90
9223;DHT22;7557;51.698;3.942;2023-05-21T07:25:18;16.00;99.90
9223;DHT22;7557;51.698;3.942;2023-05-21T07:27:45;16.00;99.90
9223;DHT22;7557;51.698;3.942;2023-05-21T07:30:13;16.00;99.90
9223;DHT22;7557;51.698;3.942;2023-05-21T07:32:41;16.00;99.90
9223;DHT22;7557;51.698;3.942;2023-05-21T07:35:09;16.00;99.90
9223;DHT22;7557;51.698;3.942;2023-05-21T07:37:36;16.00;99.90
9223;DHT22;7557;51.698;3.942;2023-05-21T07:40:05;16.10;99.90
9223;DHT22;7557;51.698;3.942;2023-05-21T07:42:34;16.20;99.90
9223;DHT22;7557;51.698;3.942;2023-05-21T07:45:01;16.20;99.90
9223;DHT22;7557;51.698;3.942;2023-05-21T07:47:29;16.20;99.90
9223;DHT22;7557;51.698;3.942;2023-05-21T07:49:57;16.30;99.90
9223;DHT22;7557;51.698;3.942;2023-05-21T07:52:24;16.30;99.90
9223;DHT22;7557;51.698;3.942;2023-05-21T07:54:52;16.40;99.90
9223;DHT22;7557;51.698;3.942;2023-05-21T07:57:19;16.50;99.90
9223;DHT22;7557;51.698;3.942;2023-05-21T07:59:49;16.50;99.90
9223;DHT22;7557;51.698;3.942;2023-05-21T08:02:17;16.60;99.90
9223;DHT22;7557;51.698;3.942;2023-05-21T08:04:44;16.60;99.90
9223;DHT22;7557;51.698;3.942;2023-05-21T08:07:13;16.60;99.90
9223;DHT22;7557;51.698;3.942;2023-05-21T08:09:41;16.70;99.90
9223;DHT22;7557;51.698;3.942;2023-05-21T08:12:09;16.70;99.90
9223;DHT22;7557;51.698;3.942;2023-05-21T08:14:39;16.70;99.90
9223;DHT22;7557;51.698;3.942;2023-05-21T08:17:08;16.70;99.90
9223;DHT22;7557;51.698;3.942;2023-05-21T08:19:36;16.60;99.90
9223;DHT22;7557;51.698;3.942;2023-05-21T08:22:04;16.70;99.90
9223;DHT22;7557;51.698;3.942;2023-05-21T08:24:32;16.70;99.90
9223;DHT22;7557;51.698;3.942;2023-05-21T08:27:00;16.80;99.90
9223;DHT22;7557;51.698;3.942;2023-05-21T08:29:27;16.90;99.90
9223;DHT22;7557;51.698;3.942;2023-05-21T08:31:55;17.10;99.90
9223;DHT22;7557;51.698;3.942;2023-05-21T08:34:24;17.20;99.90
9223;DHT22;7557;51.698;3.942;2023-05-21T08:36:51;17.20;99.90
9223;DHT22;7557;51.698;3.942;2023-05-21T08:39:19;17.20;99.90
9223;DHT22;7557;51.698;3.942;2023-05-21T08:41:46;17.30;99.90
9223;DHT22;7557;51.698;3.942;2023-05-21T08:44:19;17.30;99.90
9223;DHT22;7557;51.698;3.942;2023-05-21T08:46:49;17.20;99.90
9223;DHT22;7557;51.698;3.942;2023-05-21T08:49:18;17.20;99.90
9223;DHT22;7557;51.698;3.942;2023-05-21T08:51:50;17.20;99.90
9223;DHT22;7557;51.698;3.942;2023-05-21T08:54:19;17.20;99.90
9223;DHT22;7557;51.698;3.942;2023-05-21T08:56:47;17.10;99.90
9223;DHT22;7557;51.698;3.942;2023-05-21T08:59:15;17.20;99.90
9223;DHT22;7557;51.698;3.942;2023-05-21T09:01:44;17.20;99.90
9223;DHT22;7557;51.698;3.942;2023-05-21T09:04:14;17.30;99.90
9223;DHT22;7557;51.698;3.942;2023-05-21T09:06:43;17.30;99.90
9223;DHT22;7557;51.698;3.942;2023-05-21T09:09:18;17.40;99.90
9223;DHT22;7557;51.698;3.942;2023-05-21T09:11:50;17.50;99.90
9223;DHT22;7557;51.698;3.942;2023-05-21T09:14:18;17.60;99.90
9223;DHT22;7557;51.698;3.942;2023-05-21T09:16:47;17.70;99.90
9223;DHT22;7557;51.698;3.942;2023-05-21T09:19:15;17.90;99.90
9223;DHT22;7557;51.698;3.942;2023-05-21T09:21:43;18.00;99.90
9223;DHT22;7557;51.698;3.942;2023-05-21T09:24:10;18.20;99.90
9223;DHT22;7557;51.698;3.942;2023-05-21T09:26:41;18.30;99.90
9223;DHT22;7557;51.698;3.942;2023-05-21T09:29:09;18.50;99.90
9223;DHT22;7557;51.698;3.942;2023-05-21T09:31:42;18.50;99.90
9223;DHT22;7557;51.698;3.942;2023-05-21T09:34:10;18.50;99.90
9223;DHT22;7557;51.698;3.942;2023-05-21T09:36:39;18.50;99.90
9223;DHT22;7557;51.698;3.942;2023-05-21T09:39:06;18.40;99.90
9223;DHT22;7557;51.698;3.942;2023-05-21T09:41:36;18.40;99.90
9223;DHT22;7557;51.698;3.942;2023-05-21T09:44:05;18.50;99.90
9223;DHT22;7557;51.698;3.942;2023-05-21T09:46:37;18.50;99.90
9223;DHT22;7557;51.698;3.942;2023-05-21T09:49:05;18.60;99.90
9223;DHT22;7557;51.698;3.942;2023-05-21T09:51:33;18.60;99.90
9223;DHT22;7557;51.698;3.942;2023-05-21T09:54:04;18.60;99.90
9223;DHT22;7557;51.698;3.942;2023-05-21T09:56:33;18.60;99.90
9223;DHT22;7557;51.698;3.942;2023-05-21T09:59:02;18.70;99.90
9223;DHT22;7557;51.698;3.942;2023-05-21T10:01:32;18.80;99.90
9223;DHT22;7557;51.698;3.942;2023-05-21T10:04:02;18.80;99.90
9223;DHT22;7557;51.698;3.942;2023-05-21T10:06:31;18.90;99.90
9223;DHT22;7557;51.698;3.942;2023-05-21T10:09:02;18.90;99.90
9223;DHT22;7557;51.698;3.942;2023-05-21T10:11:33;18.90;99.90
9223;DHT22;7557;51.698;3.942;2023-05-21T10:14:05;18.90;99.90
9223;DHT22;7557;51.698;3.942;2023-05-21T10:16:35;18.90;99.90
9223;DHT22;7557;51.698;3.942;2023-05-21T10:19:03;18.90;99.90
9223;DHT22;7557;51.698;3.942;2023-05-21T10:21:36;18.90;99.90
9223;DHT22;7557;51.698;3.942;2023-05-21T10:24:07;18.90;99.90
9223;DHT22;7557;51.698;3.942;2023-05-21T10:26:35;19.00;99.90
9223;DHT22;7557;51.698;3.942;2023-05-21T10:29:04;19.00;99.90
9223;DHT22;7557;51.698;3.942;2023-05-21T10:31:33;19.10;99.90
9223;DHT22;7557;51.698;3.942;2023-05-21T10:34:03;19.10;99.90
9223;DHT22;7557;51.698;3.942;2023-05-21T10:36:32;19.00;99.90
9223;DHT22;7557;51.698;3.942;2023-05-21T10:39:01;19.00;99.90
9223;DHT22;7557;51.698;3.942;2023-05-21T10:41:36;19.00;99.90
9223;DHT22;7557;51.698;3.942;2023-05-21T10:44:13;19.00;99.90
9223;DHT22;7557;51.698;3.942;2023-05-21T10:47:12;18.90;99.90
9223;DHT22;7557;51.698;3.942;2023-05-21T10:49:53;18.70;99.90
9223;DHT22;7557;51.698;3.942;2023-05-21T10:52:49;18.70;99.90
9223;DHT22;7557;51.698;3.942;2023-05-21T10:55:30;18.60;99.90
9223;DHT22;7557;51.698;3.942;2023-05-21T10:58:25;18.50;99.90
9223;DHT22;7557;51.698;3.942;2023-05-21T11:00:55;18.50;99.90
9223;DHT22;7557;51.698;3.942;2023-05-21T11:03:25;18.50;99.90
9223;DHT22;7557;51.698;3.942;2023-05-21T11:05:54;18.60;99.90
9223;DHT22;7557;51.698;3.942;2023-05-21T11:08:23;18.70;99.90
9223;DHT22;7557;51.698;3.942;2023-05-21T11:10:51;18.90;99.90
9223;DHT22;7557;51.698;3.942;2023-05-21T11:13:20;19.00;99.90
9223;DHT22;7557;51.698;3.942;2023-05-21T11:16:05;19.00;99.90
9223;DHT22;7557;51.698;3.942;2023-05-21T11:19:03;18.90;99.90
9223;DHT22;7557;51.698;3.942;2023-05-21T11:21:33;18.80;99.90
9223;DHT22;7557;51.698;3.942;2023-05-21T11:24:03;18.80;99.90
9223;DHT22;7557;51.698;3.942;2023-05-21T11:29:42;18.80;99.90
9223;DHT22;7557;51.698;3.942;2023-05-21T11:32:11;18.50;99.90
9223;DHT22;7557;51.698;3.942;2023-05-21T11:34:42;18.40;99.90
9223;DHT22;7557;51.698;3.942;2023-05-21T11:37:29;18.40;99.90
9223;DHT22;7557;51.698;3.942;2023-05-21T11:40:17;18.40;99.90
9223;DHT22;7557;51.698;3.942;2023-05-21T11:42:49;18.40;99.90
9223;DHT22;7557;51.698;3.942;2023-05-21T11:45:18;18.40;99.90
9223;DHT22;7557;51.698;3.942;2023-05-21T11:47:46;18.40;99.90
9223;DHT22;7557;51.698;3.942;2023-05-21T11:50:16;18.50;99.90
9223;DHT22;7557;51.698;3.942;2023-05-21T11:52:44;18.60;99.90
9223;DHT22;7557;51.698;3.942;2023-05-21T11:55:11;18.60;99.90
9223;DHT22;7557;51.698;3.942;2023-05-21T11:57:42;18.50;99.90
9223;DHT22;7557;51.698;3.942;2023-05-21T12:00:13;18.40;99.90
9223;DHT22;7557;51.698;3.942;2023-05-21T12:02:46;18.30;99.90
9223;DHT22;7557;51.698;3.942;2023-05-21T12:05:16;18.30;99.90
9223;DHT22;7557;51.698;3.942;2023-05-21T12:07:46;18.40;99.90
9223;DHT22;7557;51.698;3.942;2023-05-21T12:10:15;18.50;99.90
9223;DHT22;7557;51.698;3.942;2023-05-21T12:12:43;18.50;99.90
9223;DHT22;7557;51.698;3.942;2023-05-21T12:15:11;18.60;99.90
9223;DHT22;7557;51.698;3.942;2023-05-21T12:17:40;18.80;99.90
9223;DHT22;7557;51.698;3.942;2023-05-21T12:20:08;18.90;99.90
9223;DHT22;7557;51.698;3.942;2023-05-21T12:22:41;18.90;99.90
9223;DHT22;7557;51.698;3.942;2023-05-21T12:25:09;18.90;99.90
9223;DHT22;7557;51.698;3.942;2023-05-21T12:27:38;18.90;99.90
9223;DHT22;7557;51.698;3.942;2023-05-21T12:30:08;19.00;99.90
9223;DHT22;7557;51.698;3.942;2023-05-21T12:32:39;19.00;99.90
9223;DHT22;7557;51.698;3.942;2023-05-21T12:35:11;19.00;99.90
9223;DHT22;7557;51.698;3.942;2023-05-21T12:37:48;19.00;99.90
9223;DHT22;7557;51.698;3.942;2023-05-21T12:40:17;19.00;99.90
9223;DHT22;7557;51.698;3.942;2023-05-21T12:42:44;18.90;99.90
9223;DHT22;7557;51.698;3.942;2023-05-21T12:45:13;18.80;99.90
9223;DHT22;7557;51.698;3.942;2023-05-21T12:47:47;18.80;99.90
9223;DHT22;7557;51.698;3.942;2023-05-21T12:50:19;18.70;99.90
9223;DHT22;7557;51.698;3.942;2023-05-21T12:52:53;18.60;99.90
9223;DHT22;7557;51.698;3.942;2023-05-21T12:55:22;18.60;99.90
9223;DHT22;7557;51.698;3.942;2023-05-21T12:58:01;18.50;99.90
9223;DHT22;7557;51.698;3.942;2023-05-21T13:00:31;18.50;99.90
9223;DHT22;7557;51.698;3.942;2023-05-21T13:02:59;18.60;99.90
9223;DHT22;7557;51.698;3.942;2023-05-21T13:05:27;18.60;99.90
9223;DHT22;7557;51.698;3.942;2023-05-21T13:07:57;18.70;99.90
9223;DHT22;7557;51.698;3.942;2023-05-21T13:10:24;18.80;99.90
9223;DHT22;7557;51.698;3.942;2023-05-21T13:12:51;18.90;99.90
9223;DHT22;7557;51.698;3.942;2023-05-21T13:15:19;18.90;99.90
9223;DHT22;7557;51.698;3.942;2023-05-21T13:17:46;18.90;99.90
9223;DHT22;7557;51.698;3.942;2023-05-21T13:20:15;18.90;99.90
9223;DHT22;7557;51.698;3.942;2023-05-21T13:22:46;18.90;99.90
9223;DHT22;7557;51.698;3.942;2023-05-21T13:25:16;18.90;99.90
9223;DHT22;7557;51.698;3.942;2023-05-21T13:27:45;19.00;99.90
9223;DHT22;7557;51.698;3.942;2023-05-21T13:30:13;19.10;99.90
9223;DHT22;7557;51.698;3.942;2023-05-21T13:32:41;19.10;99.90
9223;DHT22;7557;51.698;3.942;2023-05-21T13:35:09;19.00;99.90
9223;DHT22;7557;51.698;3.942;2023-05-21T13:37:38;18.90;99.90
9223;DHT22;7557;51.698;3.942;2023-05-21T13:40:07;18.80;99.90
9223;DHT22;7557;51.698;3.942;2023-05-21T13:42:37;18.70;99.90
9223;DHT22;7557;51.698;3.942;2023-05-21T13:45:05;18.70;99.90
9223;DHT22;7557;51.698;3.942;2023-05-21T13:47:33;18.60;99.90
9223;DHT22;7557;51.698;3.942;2023-05-21T13:50:01;18.50;99.90
9223;DHT22;7557;51.698;3.942;2023-05-21T13:52:29;18.50;99.90
9223;DHT22;7557;51.698;3.942;2023-05-21T13:54:56;18.50;99.90
9223;DHT22;7557;51.698;3.942;2023-05-21T13:57:24;18.50;99.90
9223;DHT22;7557;51.698;3.942;2023-05-21T13:59:53;18.50;99.90
9223;DHT22;7557;51.698;3.942;2023-05-21T14:02:21;18.60;99.90
9223;DHT22;7557;51.698;3.942;2023-05-21T14:04:48;18.60;99.90
9223;DHT22;7557;51.698;3.942;2023-05-21T14:07:16;18.60;99.90
9223;DHT22;7557;51.698;3.942;2023-05-21T14:09:44;18.70;99.90
9223;DHT22;7557;51.698;3.942;2023-05-21T14:12:12;18.70;99.90
9223;DHT22;7557;51.698;3.942;2023-05-21T14:14:40;18.70;99.90
9223;DHT22;7557;51.698;3.942;2023-05-21T14:17:10;18.70;99.90
9223;DHT22;7557;51.698;3.942;2023-05-21T14:19:37;18.70;99.90
9223;DHT22;7557;51.698;3.942;2023-05-21T14:22:05;18.70;99.90
9223;DHT22;7557;51.698;3.942;2023-05-21T14:24:32;18.70;99.90
9223;DHT22;7557;51.698;3.942;2023-05-21T14:27:00;18.70;99.90
9223;DHT22;7557;51.698;3.942;2023-05-21T14:29:27;18.60;99.90
9223;DHT22;7557;51.698;3.942;2023-05-21T14:31:55;18.70;99.90
9223;DHT22;7557;51.698;3.942;2023-05-21T14:34:24;18.80;99.90
9223;DHT22;7557;51.698;3.942;2023-05-21T14:36:51;18.80;99.90
9223;DHT22;7557;51.698;3.942;2023-05-21T14:39:19;18.90;99.90
9223;DHT22;7557;51.698;3.942;2023-05-21T14:41:47;18.90;99.90
9223;DHT22;7557;51.698;3.942;2023-05-21T14:44:14;18.90;99.90
9223;DHT22;7557;51.698;3.942;2023-05-21T14:46:42;18.90;99.90
9223;DHT22;7557;51.698;3.942;2023-05-21T14:49:09;19.00;99.90
9223;DHT22;7557;51.698;3.942;2023-05-21T14:51:39;19.00;99.90
9223;DHT22;7557;51.698;3.942;2023-05-21T14:54:08;18.90;99.90
9223;DHT22;7557;51.698;3.942;2023-05-21T14:56:38;18.90;99.90
9223;DHT22;7557;51.698;3.942;2023-05-21T14:59:05;18.90;99.90
9223;DHT22;7557;51.698;3.942;2023-05-21T15:01:33;18.90;99.90
9223;DHT22;7557;51.698;3.942;2023-05-21T15:04:02;19.10;99.90
9223;DHT22;7557;51.698;3.942;2023-05-21T15:06:32;19.20;99.90
9223;DHT22;7557;51.698;3.942;2023-05-21T15:09:02;19.30;99.90
9223;DHT22;7557;51.698;3.942;2023-05-21T15:11:29;19.20;99.90
9223;DHT22;7557;51.698;3.942;2023-05-21T15:13:58;19.20;99.90
9223;DHT22;7557;51.698;3.942;2023-05-21T15:16:26;19.20;99.90
9223;DHT22;7557;51.698;3.942;2023-05-21T15:18:53;19.20;99.90
9223;DHT22;7557;51.698;3.942;2023-05-21T15:21:21;19.20;99.90
9223;DHT22;7557;51.698;3.942;2023-05-21T15:23:48;19.20;99.90
9223;DHT22;7557;51.698;3.942;2023-05-21T15:26:18;19.30;99.90
9223;DHT22;7557;51.698;3.942;2023-05-21T15:28:46;19.30;99.90
9223;DHT22;7557;51.698;3.942;2023-05-21T15:31:13;19.40;99.90
9223;DHT22;7557;51.698;3.942;2023-05-21T15:33:41;19.30;99.90
9223;DHT22;7557;51.698;3.942;2023-05-21T15:36:08;19.20;99.90
9223;DHT22;7557;51.698;3.942;2023-05-21T15:38:36;19.00;99.90
9223;DHT22;7557;51.698;3.942;2023-05-21T15:41:06;18.90;99.90
9223;DHT22;7557;51.698;3.942;2023-05-21T15:43:36;18.70;99.90
9223;DHT22;7557;51.698;3.942;2023-05-21T15:46:04;18.60;99.90
9223;DHT22;7557;51.698;3.942;2023-05-21T15:48:31;18.50;99.90
9223;DHT22;7557;51.698;3.942;2023-05-21T15:50:59;18.40;99.90
9223;DHT22;7557;51.698;3.942;2023-05-21T15:53:28;18.20;99.90
9223;DHT22;7557;51.698;3.942;2023-05-21T15:55:56;18.00;99.90
9223;DHT22;7557;51.698;3.942;2023-05-21T15:58:23;18.00;99.90
9223;DHT22;7557;51.698;3.942;2023-05-21T16:00:52;17.90;99.90
9223;DHT22;7557;51.698;3.942;2023-05-21T16:03:20;17.90;99.90
9223;DHT22;7557;51.698;3.942;2023-05-21T16:05:47;18.00;99.90
9223;DHT22;7557;51.698;3.942;2023-05-21T16:08:15;18.00;99.90
9223;DHT22;7557;51.698;3.942;2023-05-21T16:10:43;18.00;99.90
9223;DHT22;7557;51.698;3.942;2023-05-21T16:13:10;18.00;99.90
9223;DHT22;7557;51.698;3.942;2023-05-21T16:15:38;18.10;99.90
9223;DHT22;7557;51.698;3.942;2023-05-21T16:18:07;18.10;99.90
9223;DHT22;7557;51.698;3.942;2023-05-21T16:20:35;18.00;99.90